Search for airport 
image banner adimage banner ad
image banner ad

DNGB - Gbaran Ubie/Gbaran Ubie Heliport

Located in Port-Harcourt, Nigeria

ICAO - , IATA -

Data provided by Airmate  

General information

Coordinates: N5°0'28" E6°17'49"
Elevation is feet MSL.
 
Rated:
View ratings: [VIEW]


View others Airports in Delta

Operational data

Open for public use
Current time UTC:
Current local time:
Weather at : DNPO - Port Harcourt/Port Harcourt ( 72 km )
METAR: DNPO 062300Z 00000KT 8000 SCT008 25/23 Q1016 NOSIG
TAF: TAF DNPO 062300Z 0700/0806 VRB02KT 8000 SCT008 TEMPO 0703/0707 5000 BR PROB30 0704/0706 3000 BECMG 0708/0710 25010KT BKN012 TEMPO 0714/0717 BKN011 FEW020CB
View NOTAMs / SUP AIP / TFR affecting this airport [VIEW]
Communications frequencies: [VIEW]

Runways:

Airport contact information

Address: Port-Harcourt Nigeria

Satellite view of DNGB